createdAt,value
2023-06-29T00:00:17.762Z,0
2023-06-29T00:01:18.810Z,0
2023-06-29T00:02:18.425Z,0
2023-06-29T00:03:19.243Z,0
2023-06-29T00:04:19.286Z,0
2023-06-29T00:05:20.177Z,0
2023-06-29T00:06:20.708Z,0
2023-06-29T00:07:21.396Z,0
2023-06-29T00:08:21.745Z,0
2023-06-29T00:09:22.726Z,0
2023-06-29T00:10:23.461Z,0
2023-06-29T00:11:23.973Z,0
2023-06-29T00:12:24.490Z,0
2023-06-29T00:13:25.402Z,0
2023-06-29T00:14:26.239Z,0
2023-06-29T00:15:26.764Z,0
2023-06-29T00:16:27.886Z,0
2023-06-29T00:17:28.607Z,0
2023-06-29T00:18:29.398Z,0
2023-06-29T00:19:30.037Z,0
2023-06-29T00:20:30.825Z,0
2023-06-29T00:21:33.826Z,0
2023-06-29T00:22:31.652Z,0
2023-06-29T00:23:32.560Z,0
2023-06-29T00:24:33.128Z,0
2023-06-29T00:25:34.047Z,0
2023-06-29T00:26:34.589Z,0
2023-06-29T00:27:35.177Z,0
2023-06-29T00:28:36.109Z,0
2023-06-29T00:29:36.770Z,0
2023-06-29T00:30:37.333Z,0
2023-06-29T00:31:38.352Z,0
2023-06-29T00:32:38.491Z,0
2023-06-29T00:33:38.814Z,0
2023-06-29T00:34:40.084Z,0
2023-06-29T00:35:40.725Z,0
2023-06-29T00:36:41.093Z,0
2023-06-29T00:37:41.792Z,0
2023-06-29T00:38:42.395Z,0
2023-06-29T00:39:43.109Z,0
2023-06-29T00:40:43.853Z,0
2023-06-29T00:41:44.568Z,0
2023-06-29T00:42:45.297Z,0
2023-06-29T00:43:46.006Z,0
2023-06-29T00:44:46.030Z,0
2023-06-29T00:45:47.548Z,0
2023-06-29T00:46:47.239Z,0
2023-06-29T00:47:48.892Z,0
2023-06-29T00:48:48.885Z,0
2023-06-29T00:49:49.673Z,0
2023-06-29T00:50:50.598Z,0
2023-06-29T00:51:51.316Z,0
2023-06-29T00:52:52.017Z,0
2023-06-29T00:53:52.632Z,0
2023-06-29T00:54:53.136Z,0
2023-06-29T00:55:53.341Z,0
2023-06-29T00:56:53.832Z,0
2023-06-29T00:57:54.528Z,0
2023-06-29T00:58:55.502Z,0
2023-06-29T00:59:55.217Z,0
2023-06-29T01:00:56.047Z,0
2023-06-29T01:01:57.001Z,0
2023-06-29T01:02:58.070Z,0
2023-06-29T01:03:58.707Z,0
2023-06-29T01:04:58.781Z,0
2023-06-29T01:05:59.492Z,0
2023-06-29T01:07:00.526Z,0
2023-06-29T01:08:00.451Z,0
2023-06-29T01:09:00.977Z,0
2023-06-29T01:10:01.499Z,0
2023-06-29T01:11:01.988Z,0
2023-06-29T01:12:03.101Z,0
2023-06-29T01:13:03.635Z,0
2023-06-29T01:14:04.316Z,0
2023-06-29T01:15:04.303Z,0
2023-06-29T01:16:04.791Z,0
2023-06-29T01:17:06.174Z,0
2023-06-29T01:18:07.083Z,0
2023-06-29T01:19:07.464Z,0
2023-06-29T01:20:08.394Z,0
2023-06-29T01:21:09.496Z,0
2023-06-29T01:22:10.517Z,0
2023-06-29T01:23:11.366Z,0
2023-06-29T01:24:11.495Z,0
2023-06-29T01:25:12.393Z,0
2023-06-29T01:26:12.205Z,0
2023-06-29T01:27:13.148Z,0
2023-06-29T01:28:13.251Z,0
2023-06-29T01:29:13.781Z,0
2023-06-29T01:30:14.484Z,0
2023-06-29T01:31:15.011Z,0
2023-06-29T01:32:15.091Z,0
2023-06-29T01:33:15.951Z,0
2023-06-29T01:34:15.869Z,0
2023-06-29T01:35:16.504Z,0
2023-06-29T01:36:16.423Z,0
2023-06-29T01:37:17.245Z,0
2023-06-29T01:38:17.933Z,0
2023-06-29T01:39:18.462Z,0
2023-06-29T01:40:19.436Z,0
2023-06-29T01:41:19.377Z,0
2023-06-29T01:42:19.486Z,0
2023-06-29T01:43:21.167Z,0
2023-06-29T01:44:21.297Z,0
2023-06-29T01:45:22.085Z,0
2023-06-29T01:46:23.145Z,0
2023-06-29T01:47:22.983Z,0
2023-06-29T01:48:23.760Z,0
2023-06-29T01:49:24.681Z,0
2023-06-29T01:50:24.748Z,0
2023-06-29T01:51:25.260Z,0
2023-06-29T01:52:26.089Z,0
2023-06-29T01:53:25.797Z,0
2023-06-29T01:54:26.435Z,0
2023-06-29T01:55:26.676Z,0
2023-06-29T01:56:27.777Z,0
2023-06-29T01:57:28.273Z,0
2023-06-29T01:58:29.197Z,0
2023-06-29T01:59:30.114Z,0
2023-06-29T02:00:30.407Z,0
2023-06-29T02:01:31.419Z,0
2023-06-29T02:02:31.556Z,0
2023-06-29T02:03:32.668Z,0
2023-06-29T02:04:32.805Z,0
2023-06-29T02:05:34.051Z,0
2023-06-29T02:06:34.199Z,0
2023-06-29T02:07:35.375Z,0
2023-06-29T02:08:34.720Z,0
2023-06-29T02:09:35.622Z,0
2023-06-29T02:10:36.152Z,0
2023-06-29T02:11:36.688Z,0
2023-06-29T02:12:37.426Z,0
2023-06-29T02:13:38.202Z,0
2023-06-29T02:14:39.344Z,0
2023-06-29T02:15:39.729Z,0
2023-06-29T02:16:41.014Z,0
2023-06-29T02:17:41.974Z,0
2023-06-29T02:18:42.527Z,0
2023-06-29T02:19:43.144Z,0
2023-06-29T02:20:44.347Z,0
2023-06-29T02:21:45.070Z,0
2023-06-29T02:22:45.715Z,0
2023-06-29T02:23:46.835Z,0
2023-06-29T02:24:47.361Z,0
2023-06-29T02:25:48.941Z,0
2023-06-29T02:26:48.654Z,0
2023-06-29T02:27:49.770Z,0
2023-06-29T02:28:50.471Z,0
2023-06-29T02:29:51.197Z,0
2023-06-29T02:30:51.882Z,0
2023-06-29T02:31:52.727Z,0
2023-06-29T02:32:52.861Z,0
2023-06-29T02:33:53.467Z,0
2023-06-29T02:34:54.159Z,0
2023-06-29T02:35:55.245Z,0
2023-06-29T02:36:54.570Z,0
2023-06-29T02:37:55.572Z,0
2023-06-29T02:38:56.122Z,0
2023-06-29T02:39:56.895Z,0
2023-06-29T02:40:58.060Z,0
2023-06-29T02:41:58.759Z,0
2023-06-29T02:42:59.492Z,0
2023-06-29T02:44:00.195Z,0
2023-06-29T02:45:00.922Z,0
2023-06-29T02:46:01.585Z,0
2023-06-29T02:47:02.599Z,0
2023-06-29T02:48:03.146Z,0
2023-06-29T02:49:03.688Z,0
2023-06-29T02:50:04.270Z,0
2023-06-29T02:51:05.233Z,0
2023-06-29T02:52:04.944Z,0
2023-06-29T02:53:05.696Z,0
2023-06-29T02:54:06.410Z,0
2023-06-29T02:55:07.087Z,0
2023-06-29T02:56:08.117Z,4
2023-06-29T02:57:07.832Z,4
2023-06-29T02:58:08.561Z,0
2023-06-29T02:59:09.725Z,0
2023-06-29T03:00:10.280Z,4
2023-06-29T03:01:11.133Z,4
2023-06-29T03:02:12.069Z,0
2023-06-29T03:03:13.588Z,4
2023-06-29T03:04:13.852Z,4
2023-06-29T03:05:14.745Z,0
2023-06-29T03:06:15.440Z,4
2023-06-29T03:07:18.946Z,4
2023-06-29T03:08:16.741Z,4
2023-06-29T03:09:17.268Z,8
2023-06-29T03:10:18.233Z,4
2023-06-29T03:11:19.000Z,8
2023-06-29T03:12:19.497Z,8
2023-06-29T03:13:19.984Z,12
2023-06-29T03:14:20.531Z,8
2023-06-29T03:15:20.841Z,12
2023-06-29T03:16:22.722Z,12
2023-06-29T03:17:22.567Z,12
2023-06-29T03:18:23.269Z,16
2023-06-29T03:19:23.999Z,16
2023-06-29T03:20:24.757Z,20
2023-06-29T03:21:29.828Z,20
2023-06-29T03:22:26.150Z,20
2023-06-29T03:23:26.929Z,20
2023-06-29T03:24:27.617Z,24
2023-06-29T03:25:27.738Z,24
2023-06-29T03:26:28.950Z,28
2023-06-29T03:27:29.165Z,28
2023-06-29T03:28:30.074Z,32
2023-06-29T03:29:29.782Z,32
2023-06-29T03:30:30.280Z,36
2023-06-29T03:31:31.575Z,40
2023-06-29T03:32:31.299Z,44
2023-06-29T03:33:32.125Z,48
2023-06-29T03:34:32.611Z,48
2023-06-29T03:35:33.569Z,52
2023-06-29T03:36:33.911Z,52
2023-06-29T03:37:34.843Z,56
2023-06-29T03:38:35.771Z,60
2023-06-29T03:39:36.087Z,60
2023-06-29T03:40:36.375Z,64
2023-06-29T03:41:37.674Z,64
2023-06-29T03:42:37.779Z,68
2023-06-29T03:43:38.467Z,72
2023-06-29T03:44:39.180Z,76
2023-06-29T03:45:40.342Z,72
2023-06-29T03:46:40.410Z,76
2023-06-29T03:47:41.279Z,80
2023-06-29T03:48:41.981Z,84
2023-06-29T03:49:41.930Z,84
2023-06-29T03:50:42.250Z,88
2023-06-29T03:51:43.261Z,88
2023-06-29T03:52:43.793Z,96
2023-06-29T03:53:44.735Z,96
2023-06-29T03:54:45.220Z,96
2023-06-29T03:55:47.427Z,100
2023-06-29T03:56:45.862Z,104
2023-06-29T03:57:46.763Z,108
2023-06-29T03:58:47.482Z,112
2023-06-29T03:59:47.838Z,112
2023-06-29T04:00:48.740Z,116
2023-06-29T04:01:49.663Z,116
2023-06-29T04:02:49.678Z,120
2023-06-29T04:03:50.828Z,124
2023-06-29T04:04:51.365Z,124
2023-06-29T04:05:52.378Z,124
2023-06-29T04:06:53.590Z,128
2023-06-29T04:07:53.145Z,132
2023-06-29T04:08:54.101Z,136
2023-06-29T04:09:53.819Z,136
2023-06-29T04:10:54.526Z,140
2023-06-29T04:11:55.243Z,144
2023-06-29T04:12:55.964Z,144
2023-06-29T04:13:56.352Z,148
2023-06-29T04:14:56.654Z,148
2023-06-29T04:15:57.396Z,152
2023-06-29T04:16:57.495Z,156
2023-06-29T04:17:58.522Z,156
2023-06-29T04:18:58.248Z,160
2023-06-29T04:19:59.175Z,164
2023-06-29T04:20:59.734Z,164
2023-06-29T04:22:00.470Z,168
2023-06-29T04:23:00.627Z,168
2023-06-29T04:24:01.604Z,172
2023-06-29T04:25:02.496Z,176
2023-06-29T04:26:02.796Z,180
2023-06-29T04:27:03.637Z,180
2023-06-29T04:28:03.975Z,184
2023-06-29T04:29:05.108Z,188
2023-06-29T04:30:06.045Z,192
2023-06-29T04:31:05.899Z,196
2023-06-29T04:32:06.987Z,196
2023-06-29T04:33:07.544Z,200
2023-06-29T04:34:08.060Z,204
2023-06-29T04:35:08.768Z,208
2023-06-29T04:36:09.491Z,212
2023-06-29T04:37:09.582Z,216
2023-06-29T04:38:10.318Z,220
2023-06-29T04:39:11.203Z,224
2023-06-29T04:40:12.489Z,228
2023-06-29T04:41:12.448Z,232
2023-06-29T04:42:13.443Z,232
2023-06-29T04:43:14.563Z,240
2023-06-29T04:44:15.562Z,240
2023-06-29T04:45:15.901Z,244
2023-06-29T04:46:16.874Z,252
2023-06-29T04:47:17.959Z,252
2023-06-29T04:48:18.720Z,256
2023-06-29T04:49:19.821Z,260
2023-06-29T04:50:20.799Z,264
2023-06-29T04:51:20.940Z,268
2023-06-29T04:52:21.537Z,272
2023-06-29T04:53:22.657Z,276
2023-06-29T04:54:22.743Z,280
2023-06-29T04:55:23.646Z,284
2023-06-29T04:56:24.353Z,288
2023-06-29T04:57:25.014Z,288
2023-06-29T04:58:25.741Z,296
2023-06-29T04:59:26.451Z,300
2023-06-29T05:00:27.047Z,304
2023-06-29T05:01:27.908Z,308
2023-06-29T05:02:28.344Z,312
2023-06-29T05:03:29.299Z,316
2023-06-29T05:04:29.682Z,320
2023-06-29T05:05:30.418Z,328
2023-06-29T05:06:31.119Z,332
2023-06-29T05:07:31.943Z,340
2023-06-29T05:08:32.019Z,344
2023-06-29T05:09:32.578Z,352
2023-06-29T05:10:33.716Z,356
2023-06-29T05:11:34.803Z,360
2023-06-29T05:12:34.207Z,368
2023-06-29T05:13:34.933Z,368
2023-06-29T05:14:35.651Z,372
2023-06-29T05:15:36.394Z,376
2023-06-29T05:16:36.920Z,384
2023-06-29T05:17:41.287Z,388
2023-06-29T05:18:38.146Z,392
2023-06-29T05:19:38.691Z,392
2023-06-29T05:20:39.418Z,400
2023-06-29T05:21:39.976Z,400
2023-06-29T05:22:40.811Z,408
2023-06-29T05:23:41.520Z,412
2023-06-29T05:24:42.531Z,416
2023-06-29T05:25:43.881Z,420
2023-06-29T05:26:43.748Z,424
2023-06-29T05:27:45.269Z,424
2023-06-29T05:29:00.326Z,428
2023-06-29T05:29:45.240Z,432
2023-06-29T05:30:45.963Z,440
2023-06-29T05:31:47.111Z,444
2023-06-29T05:32:48.441Z,444
2023-06-29T05:33:48.235Z,448
2023-06-29T05:34:49.149Z,456
2023-06-29T05:35:50.061Z,456
2023-06-29T05:36:50.418Z,460
2023-06-29T05:37:51.475Z,464
2023-06-29T05:38:51.787Z,464
2023-06-29T05:39:52.738Z,468
2023-06-29T05:40:54.229Z,472
2023-06-29T05:41:53.753Z,476
2023-06-29T05:42:54.746Z,480
2023-06-29T05:43:55.662Z,472
2023-06-29T05:44:56.355Z,480
2023-06-29T05:45:57.027Z,484
2023-06-29T05:46:57.855Z,488
2023-06-29T05:47:59.029Z,492
2023-06-29T05:48:58.491Z,492
2023-06-29T05:49:59.007Z,496
2023-06-29T05:50:59.519Z,500
2023-06-29T05:52:00.228Z,504
2023-06-29T05:53:02.476Z,504
2023-06-29T05:54:01.192Z,504
2023-06-29T05:55:01.914Z,508
2023-06-29T05:56:02.461Z,520
2023-06-29T05:57:03.036Z,520
2023-06-29T05:58:03.844Z,528
2023-06-29T05:59:03.746Z,528
2023-06-29T06:00:04.461Z,532
2023-06-29T06:01:06.971Z,536
2023-06-29T06:02:06.232Z,540
2023-06-29T06:03:07.316Z,540
2023-06-29T06:04:07.840Z,548
2023-06-29T06:05:07.831Z,552
2023-06-29T06:06:08.325Z,556
2023-06-29T06:07:09.289Z,556
2023-06-29T06:08:10.314Z,560
2023-06-29T06:09:10.201Z,560
2023-06-29T06:10:10.825Z,572
2023-06-29T06:11:11.536Z,576
2023-06-29T06:12:12.311Z,580
2023-06-29T06:13:12.916Z,584
2023-06-29T06:14:14.625Z,584
2023-06-29T06:15:14.348Z,588
2023-06-29T06:16:15.504Z,596
2023-06-29T06:17:15.311Z,588
2023-06-29T06:18:16.538Z,600
2023-06-29T06:19:15.902Z,604
2023-06-29T06:20:16.845Z,608
2023-06-29T06:21:17.808Z,616
2023-06-29T06:22:18.129Z,612
2023-06-29T06:23:19.340Z,620
2023-06-29T06:24:19.267Z,624
2023-06-29T06:25:20.430Z,628
2023-06-29T06:26:20.365Z,628
2023-06-29T06:27:20.951Z,636
2023-06-29T06:28:22.115Z,636
2023-06-29T06:29:22.823Z,640
2023-06-29T06:30:23.823Z,644
2023-06-29T06:31:41.130Z,648
2023-06-29T06:33:25.842Z,652
2023-06-29T06:34:26.752Z,656
2023-06-29T06:36:26.807Z,664
2023-06-29T06:37:27.057Z,664
2023-06-29T06:38:41.069Z,668
2023-06-29T06:40:29.652Z,664
2023-06-29T06:41:30.673Z,676
2023-06-29T06:42:30.311Z,672
2023-06-29T06:43:31.265Z,684
2023-06-29T06:44:31.770Z,688
2023-06-29T06:45:32.475Z,692
2023-06-29T06:46:33.385Z,704
2023-06-29T06:47:33.709Z,704
2023-06-29T06:48:33.991Z,712
2023-06-29T06:49:34.950Z,716
2023-06-29T06:50:36.007Z,724
2023-06-29T06:51:36.810Z,728
2023-06-29T06:52:37.579Z,732
2023-06-29T06:53:38.766Z,736
2023-06-29T06:54:38.686Z,740
2023-06-29T06:55:39.441Z,748
2023-06-29T06:56:39.962Z,752
2023-06-29T06:57:40.681Z,760
2023-06-29T06:58:41.605Z,764
2023-06-29T06:59:41.335Z,768
2023-06-29T07:00:42.478Z,776
2023-06-29T07:01:42.986Z,780
2023-06-29T07:02:43.813Z,788
2023-06-29T07:03:44.778Z,792
2023-06-29T07:04:45.695Z,796
2023-06-29T07:05:45.641Z,800
2023-06-29T07:06:46.420Z,804
2023-06-29T07:07:47.382Z,808
2023-06-29T07:08:47.677Z,812
2023-06-29T07:09:47.393Z,816
2023-06-29T07:10:49.344Z,820
2023-06-29T07:11:48.923Z,828
2023-06-29T07:12:50.067Z,832
2023-06-29T07:13:50.962Z,828
2023-06-29T07:14:51.507Z,840
2023-06-29T07:15:52.226Z,840
2023-06-29T07:16:53.524Z,848
2023-06-29T07:17:53.713Z,836
2023-06-29T07:18:54.489Z,848
2023-06-29T07:24:14.737Z,876
2023-06-29T07:25:32.741Z,880
2023-06-29T07:26:33.311Z,888
2023-06-29T07:27:34.247Z,896
2023-06-29T07:28:34.788Z,896
2023-06-29T07:29:36.095Z,900
2023-06-29T07:30:37.122Z,908
2023-06-29T07:31:37.706Z,988
2023-06-29T07:32:37.732Z,1284
2023-06-29T07:33:42.533Z,1688
2023-06-29T07:34:38.989Z,1836
2023-06-29T07:35:39.513Z,1856
2023-06-29T07:36:39.705Z,1904
2023-06-29T07:37:40.654Z,2352
2023-06-29T07:38:41.577Z,2668
2023-06-29T07:39:42.899Z,2844
2023-06-29T07:40:43.771Z,3240
2023-06-29T07:41:43.701Z,3764
2023-06-29T07:42:51.076Z,4084
2023-06-29T07:44:45.411Z,3520
2023-06-29T07:45:45.709Z,3388
2023-06-29T07:46:45.441Z,3504
2023-06-29T07:47:46.426Z,4108
2023-06-29T07:48:47.476Z,4728
2023-06-29T07:49:47.540Z,5380
2023-06-29T07:50:48.404Z,6004
2023-06-29T07:51:49.518Z,6828
2023-06-29T07:52:50.254Z,7368
2023-06-29T07:53:51.249Z,8384
2023-06-29T07:54:52.565Z,8492
2023-06-29T07:55:53.669Z,8708
2023-06-29T07:58:54.101Z,9796
2023-06-29T07:59:54.732Z,9992
2023-06-29T08:00:55.633Z,10260
2023-06-29T08:01:56.830Z,10912
2023-06-29T08:02:57.012Z,10584
2023-06-29T08:04:14.281Z,10160
2023-06-29T08:07:05.153Z,7624
2023-06-29T08:08:01.884Z,7040
2023-06-29T08:09:03.064Z,6708
2023-06-29T08:10:03.205Z,6140
2023-06-29T08:11:04.164Z,5636
2023-06-29T08:12:04.887Z,5016
2023-06-29T08:13:06.283Z,4628
2023-06-29T08:14:06.459Z,4308
2023-06-29T08:15:07.436Z,4488
2023-06-29T08:16:07.484Z,4776
2023-06-29T08:17:09.153Z,4996
2023-06-29T08:18:09.302Z,5064
2023-06-29T08:19:09.072Z,5368
2023-06-29T08:20:09.867Z,5288
2023-06-29T08:21:10.789Z,5548
2023-06-29T08:22:11.526Z,5868
2023-06-29T08:23:11.455Z,6360
2023-06-29T08:24:11.966Z,6816
2023-06-29T08:25:12.664Z,7496
2023-06-29T08:26:13.638Z,8464
2023-06-29T08:27:14.440Z,8680
2023-06-29T08:28:15.227Z,8548
2023-06-29T08:29:15.797Z,7904
2023-06-29T08:30:16.621Z,7564
2023-06-29T08:31:19.272Z,7276
2023-06-29T08:32:18.603Z,7276
2023-06-29T08:33:19.889Z,9076
2023-06-29T08:34:20.126Z,9300
2023-06-29T08:35:20.651Z,9652
2023-06-29T08:36:21.766Z,9836
2023-06-29T08:37:22.455Z,10084
2023-06-29T08:38:23.129Z,10536
2023-06-29T08:39:24.116Z,11076
2023-06-29T08:40:24.975Z,11124
2023-06-29T08:41:26.127Z,10856
2023-06-29T08:42:26.337Z,10152
2023-06-29T08:43:26.869Z,9620
2023-06-29T08:44:27.614Z,8964
2023-06-29T08:45:28.837Z,8032
2023-06-29T08:46:28.618Z,6980
2023-06-29T08:47:29.723Z,5736
2023-06-29T08:48:29.631Z,5408
2023-06-29T08:49:30.194Z,5280
2023-06-29T08:50:30.746Z,5520
2023-06-29T08:51:31.282Z,5840
2023-06-29T08:52:31.798Z,6620
2023-06-29T08:53:33.092Z,7332
2023-06-29T08:54:34.881Z,8172
2023-06-29T08:55:33.521Z,8596
2023-06-29T08:56:34.457Z,8756
2023-06-29T08:57:34.619Z,8524
2023-06-29T08:58:35.479Z,8280
2023-06-29T08:59:36.475Z,7472
2023-06-29T09:00:40.604Z,7648
2023-06-29T09:01:37.650Z,7580
2023-06-29T09:02:38.449Z,7276
2023-06-29T09:03:40.050Z,7816
2023-06-29T09:04:40.163Z,8536
2023-06-29T09:05:40.172Z,9452
2023-06-29T09:06:41.320Z,9660
2023-06-29T09:07:41.650Z,10300
2023-06-29T09:08:42.295Z,10488
2023-06-29T09:09:42.219Z,10440
2023-06-29T09:10:43.107Z,10872
2023-06-29T09:11:45.570Z,11128
2023-06-29T09:12:44.529Z,11188
2023-06-29T09:13:45.293Z,11292
2023-06-29T09:14:45.781Z,11244
2023-06-29T09:15:46.658Z,11252
2023-06-29T09:16:47.480Z,11332
2023-06-29T09:17:47.735Z,11348
2023-06-29T09:18:47.706Z,11408
2023-06-29T09:19:48.432Z,11440
2023-06-29T09:20:49.863Z,11468
2023-06-29T09:21:49.628Z,11536
2023-06-29T09:22:50.127Z,11512
2023-06-29T09:23:51.640Z,11476
2023-06-29T09:25:37.441Z,11488
2023-06-29T09:26:55.413Z,11524
2023-06-29T09:27:56.061Z,11452
2023-06-29T09:28:56.435Z,11468
2023-06-29T09:29:57.409Z,11456
2023-06-29T09:30:58.795Z,11484
2023-06-29T09:31:59.210Z,11456
2023-06-29T09:32:59.245Z,11472
2023-06-29T09:34:00.134Z,11412
2023-06-29T09:35:00.854Z,11464
2023-06-29T09:36:01.582Z,11436
2023-06-29T09:37:02.459Z,11436
2023-06-29T09:38:03.239Z,11380
2023-06-29T09:39:04.286Z,11428
2023-06-29T09:40:05.044Z,11420
2023-06-29T09:41:06.100Z,11380
2023-06-29T09:42:06.525Z,11396
2023-06-29T09:43:06.481Z,11356
2023-06-29T09:44:07.021Z,11336
2023-06-29T09:45:07.957Z,11324
2023-06-29T09:46:09.236Z,11296
2023-06-29T09:49:22.676Z,11328
2023-06-29T09:50:22.968Z,11304
2023-06-29T09:51:23.406Z,11284
2023-06-29T09:52:23.638Z,11252
2023-06-29T09:53:24.219Z,11248
2023-06-29T09:54:24.985Z,11264
2023-06-29T09:55:25.628Z,11288
2023-06-29T09:56:26.043Z,11296
2023-06-29T09:57:25.727Z,11288
2023-06-29T09:58:26.304Z,11236
2023-06-29T09:59:26.268Z,11252
2023-06-29T10:00:27.216Z,11208
2023-06-29T10:01:28.878Z,11192
2023-06-29T10:02:29.460Z,11208
2023-06-29T10:03:29.636Z,11136
2023-06-29T10:04:30.051Z,11104
2023-06-29T10:05:30.318Z,11040
2023-06-29T10:06:31.047Z,11008
2023-06-29T10:07:32.069Z,10976
2023-06-29T10:08:31.926Z,10956
2023-06-29T10:09:32.772Z,10940
2023-06-29T10:10:33.579Z,10868
2023-06-29T10:11:34.429Z,10828
2023-06-29T10:12:34.168Z,10808
2023-06-29T10:13:35.198Z,10724
2023-06-29T10:14:35.748Z,10740
2023-06-29T10:15:36.535Z,10716
2023-06-29T10:16:37.697Z,10664
2023-06-29T10:17:38.629Z,10636
2023-06-29T10:18:39.017Z,10564
2023-06-29T10:19:39.416Z,10480
2023-06-29T10:20:40.394Z,10432
2023-06-29T10:21:40.724Z,10400
2023-06-29T10:22:41.260Z,10352
2023-06-29T10:23:41.976Z,10304
2023-06-29T10:24:42.993Z,10248
2023-06-29T10:25:43.781Z,10216
2023-06-29T10:26:44.758Z,10140
2023-06-29T10:27:45.532Z,10100
2023-06-29T10:28:46.455Z,10088
2023-06-29T10:29:46.527Z,10012
2023-06-29T10:30:48.206Z,9988
2023-06-29T10:31:48.470Z,9936
2023-06-29T10:32:48.980Z,9944
2023-06-29T10:33:48.748Z,9876
2023-06-29T10:34:49.937Z,9876
2023-06-29T10:35:51.294Z,9796
2023-06-29T10:36:51.637Z,9776
2023-06-29T10:37:51.232Z,9696
2023-06-29T10:38:52.539Z,9656
2023-06-29T10:40:53.813Z,9524
2023-06-29T10:41:53.837Z,9468
2023-06-29T10:42:54.413Z,9448
2023-06-29T10:43:55.164Z,9376
2023-06-29T10:44:55.674Z,9352
2023-06-29T10:45:56.421Z,9324
2023-06-29T10:46:57.124Z,9256
2023-06-29T10:47:57.591Z,9184
2023-06-29T10:49:00.074Z,9116
2023-06-29T10:49:58.098Z,9152
2023-06-29T10:50:59.286Z,9140
2023-06-29T10:51:59.100Z,9096
2023-06-29T10:52:59.905Z,9052
2023-06-29T10:54:00.833Z,9036
2023-06-29T10:55:02.075Z,8952
2023-06-29T10:56:02.964Z,8904
2023-06-29T10:57:03.741Z,8868
2023-06-29T10:58:04.463Z,8788
2023-06-29T10:59:05.455Z,8728
2023-06-29T11:00:05.948Z,8604
2023-06-29T11:01:06.247Z,8560
2023-06-29T11:02:07.565Z,8556
2023-06-29T11:03:07.973Z,8508
2023-06-29T11:04:08.308Z,8484
2023-06-29T11:05:08.034Z,8532
2023-06-29T11:06:08.724Z,8528
2023-06-29T11:09:12.030Z,8444
2023-06-29T11:10:12.816Z,8396
2023-06-29T11:11:13.539Z,8384
2023-06-29T11:12:15.712Z,8308
2023-06-29T11:13:14.544Z,8244
2023-06-29T11:14:15.292Z,8196
2023-06-29T11:15:31.129Z,8176
2023-06-29T11:17:17.312Z,8124
2023-06-29T11:18:18.339Z,8104
2023-06-29T11:19:21.614Z,8108
2023-06-29T11:20:20.116Z,8084
2023-06-29T11:21:21.027Z,7996
2023-06-29T11:22:21.758Z,7956
2023-06-29T11:23:22.310Z,7904
2023-06-29T11:24:23.524Z,7932
2023-06-29T11:25:23.725Z,7972
2023-06-29T11:26:24.267Z,7988
2023-06-29T11:27:25.029Z,7996
2023-06-29T11:28:25.753Z,7936
2023-06-29T11:29:26.520Z,7908
2023-06-29T11:30:26.866Z,7892
2023-06-29T11:31:28.171Z,7880
2023-06-29T11:32:28.251Z,7840
2023-06-29T11:33:44.550Z,7888
2023-06-29T11:35:30.197Z,7892
2023-06-29T11:36:30.864Z,7856
2023-06-29T11:37:34.730Z,7696
2023-06-29T11:38:33.087Z,7696
2023-06-29T11:39:33.012Z,7672
2023-06-29T11:40:33.856Z,7680
2023-06-29T11:41:34.560Z,7512
2023-06-29T11:42:35.801Z,7536
2023-06-29T11:43:38.011Z,7392
2023-06-29T11:44:36.805Z,7556
2023-06-29T11:45:37.365Z,7528
2023-06-29T11:46:38.275Z,7340
2023-06-29T11:47:43.200Z,5896
2023-06-29T11:48:38.957Z,7096
2023-06-29T11:49:40.067Z,7224
2023-06-29T11:50:40.861Z,7244
2023-06-29T11:51:40.623Z,7260
2023-06-29T11:52:41.780Z,7244
2023-06-29T11:53:42.966Z,6792
2023-06-29T11:54:42.760Z,6156
2023-06-29T11:55:43.146Z,7044
2023-06-29T11:56:43.941Z,7016
2023-06-29T11:57:44.746Z,6968
2023-06-29T11:58:45.538Z,6956
2023-06-29T11:59:46.358Z,6932
2023-06-29T12:00:47.385Z,6908
2023-06-29T12:01:47.205Z,6912
2023-06-29T12:02:48.644Z,6880
2023-06-29T12:03:49.298Z,6908
2023-06-29T12:04:50.009Z,6848
2023-06-29T12:05:51.337Z,6824
2023-06-29T12:06:51.234Z,6736
2023-06-29T12:07:52.063Z,6680
2023-06-29T12:08:52.479Z,6636
2023-06-29T12:09:52.265Z,6548
2023-06-29T12:10:52.373Z,6488
2023-06-29T12:11:52.933Z,6452
2023-06-29T12:12:53.895Z,6388
2023-06-29T12:13:54.767Z,6280
2023-06-29T12:14:55.700Z,6224
2023-06-29T12:18:57.671Z,6144
2023-06-29T12:20:20.031Z,6092
2023-06-29T12:22:10.090Z,6008
2023-06-29T12:23:10.118Z,6000
2023-06-29T12:24:10.752Z,6000
2023-06-29T12:25:11.353Z,6012
2023-06-29T12:26:12.185Z,6020
2023-06-29T12:27:13.179Z,5980
2023-06-29T12:28:13.963Z,6048
2023-06-29T12:29:14.708Z,6076
2023-06-29T12:30:15.450Z,6040
2023-06-29T12:31:15.967Z,6036
2023-06-29T12:32:16.817Z,5964
2023-06-29T12:33:17.436Z,5920
2023-06-29T12:34:18.166Z,5956
2023-06-29T12:35:20.122Z,5924
2023-06-29T12:36:18.875Z,5888
2023-06-29T12:37:19.816Z,5868
2023-06-29T12:38:20.649Z,5856
2023-06-29T12:39:21.577Z,5852
2023-06-29T12:40:22.162Z,5748
2023-06-29T12:42:22.744Z,5696
2023-06-29T12:43:22.749Z,5660
2023-06-29T12:44:23.761Z,5664
2023-06-29T12:45:24.967Z,5632
2023-06-29T12:46:25.288Z,5536
2023-06-29T12:47:27.223Z,5536
2023-06-29T12:48:27.569Z,5532
2023-06-29T12:49:33.094Z,5504
2023-06-29T12:50:28.752Z,5520
2023-06-29T12:51:30.371Z,5484
2023-06-29T12:52:30.424Z,5492
2023-06-29T12:53:31.378Z,5440
2023-06-29T12:54:32.170Z,5436
2023-06-29T12:55:33.200Z,5444
2023-06-29T12:56:32.970Z,5464
2023-06-29T12:57:33.949Z,5484
2023-06-29T12:58:36.460Z,5452
2023-06-29T12:59:35.644Z,5412
2023-06-29T13:00:36.750Z,5428
2023-06-29T13:02:37.990Z,5392
2023-06-29T13:03:38.879Z,4316
2023-06-29T13:04:41.599Z,5536
2023-06-29T13:05:38.444Z,5380
2023-06-29T13:06:39.188Z,3156
2023-06-29T13:07:40.624Z,1964
2023-06-29T13:08:41.154Z,1812
2023-06-29T13:09:41.938Z,1856
2023-06-29T13:10:45.198Z,1908
2023-06-29T13:11:43.504Z,2076
2023-06-29T13:12:44.274Z,2552
2023-06-29T13:14:46.148Z,4324
2023-06-29T13:15:47.176Z,3160
2023-06-29T13:16:47.157Z,4536
2023-06-29T13:17:48.148Z,4668
2023-06-29T13:18:49.378Z,4836
2023-06-29T13:19:49.213Z,4848
2023-06-29T13:20:49.739Z,4720
2023-06-29T13:21:50.291Z,4712
2023-06-29T13:22:51.096Z,4532
2023-06-29T13:23:51.673Z,3980
2023-06-29T13:24:51.967Z,3576
2023-06-29T13:25:53.486Z,3016
2023-06-29T13:26:53.275Z,2300
2023-06-29T13:27:54.027Z,2280
2023-06-29T13:28:54.874Z,1860
2023-06-29T13:29:55.607Z,2704
2023-06-29T13:30:58.287Z,1808
2023-06-29T13:32:57.550Z,1912
2023-06-29T13:33:58.644Z,2104
2023-06-29T13:34:59.223Z,1748
2023-06-29T13:36:00.357Z,1688
2023-06-29T13:37:01.289Z,1528
2023-06-29T13:38:02.252Z,1436
2023-06-29T13:39:02.761Z,1380
2023-06-29T13:40:03.544Z,1352
2023-06-29T13:41:04.598Z,1340
2023-06-29T13:42:04.247Z,1352
2023-06-29T13:43:04.978Z,1400
2023-06-29T13:44:06.175Z,1468
2023-06-29T13:45:06.941Z,1580
2023-06-29T13:46:07.713Z,2108
2023-06-29T13:47:07.736Z,1928
2023-06-29T13:48:09.447Z,1712
2023-06-29T13:49:09.202Z,1604
2023-06-29T13:50:09.976Z,1564
2023-06-29T13:51:10.682Z,1556
2023-06-29T13:52:11.184Z,1560
2023-06-29T13:53:12.312Z,1560
2023-06-29T13:54:13.222Z,1536
2023-06-29T13:55:13.991Z,1504
2023-06-29T13:56:14.792Z,1500
2023-06-29T13:57:15.368Z,1508
2023-06-29T13:58:16.324Z,1476
2023-06-29T13:59:16.934Z,1432
2023-06-29T14:00:17.701Z,1396
2023-06-29T14:01:18.867Z,1372
2023-06-29T14:02:19.986Z,1360
2023-06-29T14:03:20.719Z,1340
2023-06-29T14:04:21.241Z,1340
2023-06-29T14:05:21.014Z,1352
2023-06-29T14:06:22.134Z,1344
2023-06-29T14:07:22.574Z,1324
2023-06-29T14:08:25.643Z,1308
2023-06-29T14:09:23.323Z,1292
2023-06-29T14:10:23.998Z,1288
2023-06-29T14:11:24.739Z,1292
2023-06-29T14:12:25.313Z,1276
2023-06-29T14:13:26.248Z,1244
2023-06-29T14:14:27.252Z,1236
2023-06-29T14:15:27.817Z,1256
2023-06-29T14:16:28.338Z,1296
2023-06-29T14:17:29.327Z,1356
2023-06-29T14:18:29.748Z,1364
2023-06-29T14:19:29.970Z,1656
2023-06-29T14:20:30.701Z,1332
2023-06-29T14:21:31.244Z,1212
2023-06-29T14:22:31.979Z,1144